AirNav   Air Wisconsin Up To $57,000 Bonus
 
 1084 users online  

CO88 Kusa Helistop
Denver, Colorado, USA

GOING TO DENVER?


FAA INFORMATION EFFECTIVE 08 SEPTEMBER 2022

Location

FAA Identifier: CO88
Lat/Long: 39-43-15.9500N 104-58-57.9300W
39-43.265833N 104-58.965500W
39.7210972,-104.9827583
(estimated)
Elevation: 5260 ft. / 1603 m (estimated)
Variation: 11E (1990)
Time zone: UTC -6 (UTC -7 during Standard Time)
Zip code: 80203

Heliport Operations

Heliport use: Private use. Permission required prior to landing
Activation date: 07/1993
Control tower: no
ARTCC: DENVER CENTER
FSS: DENVER FLIGHT SERVICE STATION
Attendance: UNATNDD
Wind indicator: yes
Segmented circle: no

Heliport Communications

UNICOM: 123.05
WX ASOS at APA (11 nm SE): PHONE 720-873-2799
WX AWOS-3 at BJC (13 nm NW): PHONE 720-887-8067
WX ASOS at DEN (17 nm NE): PHONE 303-342-1920
WX AWOS-3 at EIK (18 nm N): 133.825 (303-604-4339)
  • MULTICOM FREQ 123.025

Nearby radio navigation aids

VOR radial/distance  VOR name  Freq  Var
BJCr137/13.6JEFFCO VOR/DME115.4011E
DENr242/15.8DENVER VOR/DME117.9008E
FQFr265/16.8FALCON VORTAC116.3011E
DVVr230/19.5MILE HIGH VORTAC114.7008E

Heliport Services

Runway Information

Helipad H1

Dimensions: 74 x 74 ft. / 23 x 23 m
Surface: concrete
Traffic pattern: leftleft

Heliport Ownership and Management from official FAA records

Ownership: Privately-owned
Owner: TEGNA INC.
500 SPEER BLVD
DENVER, CO 80209
Phone 303-871-9999
Manager: TIM DIETZ
500 SPEER BLVD
DENVER, CO 80203
Phone 303-871-1491

Additional Remarks

A52-H1 25 FT BLDG WEST OF HELIPAD.
FOR CD CTC DENVER APCH AT 303-342-1916.

Instrument Procedures

There are no published instrument procedures at CO88.

Some nearby airports with instrument procedures:

KBKF - Buckley Space Force Base (11 nm E)
KAPA - Centennial Airport (11 nm SE)
KBJC - Rocky Mountain Metro Airport (13 nm NW)
KDEN - Denver International Airport (17 nm NE)
KEIK - Erie Municipal Airport (18 nm N)
 
Loc | Ops | Rwys | IFR | FBO | Links
Com | Nav | Svcs | Stats | Notes

AirBoss

 
Area around CO88 (Kusa Helistop)
 
Road maps at: MapQuest Bing Google
 
Aerial photo
No photo
 
Sectional chart

 
Airport distance calculator
Flying to Kusa Helistop? Find the distance to fly.

From to CO88

Sunrise and sunset
Times for 24-Sep-2022
 Local
(UTC-6)
 Zulu
(UTC)
Morning civil twilight06:2412:24
Sunrise06:5012:50
Sunset18:5300:53
Evening civil twilight19:2001:20

Current date and time
Zulu (UTC)  24-Sep-2022 22:40:16
Local (UTC-6)  24-Sep-2022 16:40:16
 
METAR
KBKF 
11nm E 
242158Z 01008KT 10SM FEW100 28/M04 A3019 RMK AO2A SLP157 T02761044
KAPA 
11nm SE 
242153Z 03008KT 10SM CLR 26/M04 A3020 RMK AO2 SLP173 T02611044
KBJC 
13nm NW 
242145Z VRB04KT 10SM SKC 27/M03 A3020
KDEN 
17nm NE 
242153Z VRB05KT 10SM FEW100 27/M05 A3018 RMK AO2 SLP148 T02671050
KEIK 
18nm N 
242215Z AUTO 00000KT 10SM CLR 28/M05 A3016 RMK AO2 T02751048 PWINO
KCFO 
21nm E 
242047Z 34006KT 10SM SKC 29/M09 A3020
TAF
KBKF 
11nm E 
241700Z 2417/2523 VRB06KT 9999 SKC 510023 QNH3021INS TX24/2422Z TN07/2512Z
KAPA 
11nm SE 
241740Z 2418/2518 VRB05KT P6SM FEW100 FEW220 FM242200 08006KT P6SM FEW220 FM250700 01006KT P6SM FEW220 FM251100 19006KT P6SM SKC FM251700 04006KT P6SM SKC
KBJC 
13nm NW 
241740Z 2418/2518 VRB03KT P6SM SKC FM241900 07007KT P6SM SKC FM250500 35005KT P6SM SKC
KDEN 
17nm NE 
242032Z 2421/2524 01009KT P6SM FEW100 FEW220 FM242230 04010KT P6SM FEW100 FEW220 FM250000 09006KT P6SM FEW220 FM250600 01006KT P6SM FEW220 FM251000 20006KT P6SM SKC FM251700 02007KT P6SM SKC FM252000 07007KT P6SM FEW120
NOTAMs
Click for the latest NOTAMs
NOTAMs are issued by the DoD/FAA and will open in a separate window not controlled by AirNav.

 

 
 

Would you like to see your business listed on this page?

 If your business provides an interesting product or service to pilots, flight crews, aircraft, or users of the Kusa Helistop, you should consider listing it here.  To start the listing process, click on the button below
 
Add a business
 

Other Pages about Kusa Helistop

Update a link
 
Copyright © AirNav, LLC. All rights reserved. Privacy Policy  Contact